Aviation Digital Data Service (ADDS)

Output produced by METARs form (0138 UTC 19 October 2017)
found at http://aviationweather.gov/adds/metars/
 
KBTV 182340Z 1900/1924 VRB04KT P6SM SKC 
     FM191100 18009G18KT P6SM SKC 
     FM191500 19015G25KT P6SM FEW250 
     FM192200 22010G20KT P6SM FEW080 SCT150